Pacolet, South Carolina
Current Conditions -  °F | °C
As of 3:15 PM on Wednesday 26 Nov 2014 (Local Time) from KSPA Reporting Station
Clear Clear  
Wind Chill: 14°   Ceiling: Unl
Heat Index: 14°   Visibility: 10mi
Dew Point:   Wind: 5mph
Humidity: 55%   Direction: 210°SSW
Pressure: 29.98"   Gusts: NA
Location:  34.9°N, 81.76°W
Report Text: KSPA 262015Z AUTO 21004KT 10SM CLR 14/05 A2998 RMK AO2 P0001
Loading
Personal Weather Stations






























Interactive Weather Map New forecast layout! Learn more

10-Day Weather Forecast

Advertisements
Track Severe Weather on mobile